sensor_id;sensor_type;location;lat;lon;timestamp;temperature;humidity
65203;HTU21D;51788;45.124;38.966;2023-04-24T00:00:29;10.89;80.48
65203;HTU21D;51788;45.124;38.966;2023-04-24T00:02:55;10.94;80.46
65203;HTU21D;51788;45.124;38.966;2023-04-24T00:05:22;11.02;80.45
65203;HTU21D;51788;45.124;38.966;2023-04-24T00:07:48;11.02;80.32
65203;HTU21D;51788;45.124;38.966;2023-04-24T00:10:14;11.02;80.21
65203;HTU21D;51788;45.124;38.966;2023-04-24T00:12:40;10.95;80.30
65203;HTU21D;51788;45.124;38.966;2023-04-24T00:15:07;10.82;80.43
65203;HTU21D;51788;45.124;38.966;2023-04-24T00:17:33;10.69;80.57
65203;HTU21D;51788;45.124;38.966;2023-04-24T00:19:59;10.56;80.81
65203;HTU21D;51788;45.124;38.966;2023-04-24T00:22:25;10.46;80.94
65203;HTU21D;51788;45.124;38.966;2023-04-24T00:24:51;10.34;81.04
65203;HTU21D;51788;45.124;38.966;2023-04-24T00:27:17;10.28;81.03
65203;HTU21D;51788;45.124;38.966;2023-04-24T00:29:43;10.23;81.03
65203;HTU21D;51788;45.124;38.966;2023-04-24T00:32:09;10.19;81.20
65203;HTU21D;51788;45.124;38.966;2023-04-24T00:34:36;10.16;81.15
65203;HTU21D;51788;45.124;38.966;2023-04-24T00:37:01;10.13;81.09
65203;HTU21D;51788;45.124;38.966;2023-04-24T00:39:27;10.11;81.08
65203;HTU21D;51788;45.124;38.966;2023-04-24T00:41:53;10.08;81.03
65203;HTU21D;51788;45.124;38.966;2023-04-24T00:44:20;10.06;81.00
65203;HTU21D;51788;45.124;38.966;2023-04-24T00:46:47;10.04;81.13
65203;HTU21D;51788;45.124;38.966;2023-04-24T00:49:21;10.00;81.06
65203;HTU21D;51788;45.124;38.966;2023-04-24T00:51:48;9.98;81.05
65203;HTU21D;51788;45.124;38.966;2023-04-24T00:54:15;9.96;81.09
65203;HTU21D;51788;45.124;38.966;2023-04-24T00:56:42;9.95;81.15
65203;HTU21D;51788;45.124;38.966;2023-04-24T00:59:09;9.94;81.14
65203;HTU21D;51788;45.124;38.966;2023-04-24T01:01:35;9.92;81.22
65203;HTU21D;51788;45.124;38.966;2023-04-24T01:04:02;9.90;81.30
65203;HTU21D;51788;45.124;38.966;2023-04-24T01:06:29;9.85;81.37
65203;HTU21D;51788;45.124;38.966;2023-04-24T01:08:58;9.83;81.49
65203;HTU21D;51788;45.124;38.966;2023-04-24T01:11:25;9.82;81.53
65203;HTU21D;51788;45.124;38.966;2023-04-24T01:13:51;9.83;81.47
65203;HTU21D;51788;45.124;38.966;2023-04-24T01:16:17;9.86;81.36
65203;HTU21D;51788;45.124;38.966;2023-04-24T01:18:46;9.91;81.36
65203;HTU21D;51788;45.124;38.966;2023-04-24T01:21:15;9.95;81.32
65203;HTU21D;51788;45.124;38.966;2023-04-24T01:23:45;9.98;81.23
65203;HTU21D;51788;45.124;38.966;2023-04-24T01:26:13;10.03;81.18
65203;HTU21D;51788;45.124;38.966;2023-04-24T01:28:39;10.05;81.13
65203;HTU21D;51788;45.124;38.966;2023-04-24T01:31:06;10.06;81.20
65203;HTU21D;51788;45.124;38.966;2023-04-24T01:33:32;10.04;81.23
65203;HTU21D;51788;45.124;38.966;2023-04-24T01:35:58;10.08;81.23
65203;HTU21D;51788;45.124;38.966;2023-04-24T01:38:24;10.13;81.20
65203;HTU21D;51788;45.124;38.966;2023-04-24T01:40:51;10.19;81.20
65203;HTU21D;51788;45.124;38.966;2023-04-24T01:43:17;10.26;81.17
65203;HTU21D;51788;45.124;38.966;2023-04-24T01:45:44;10.31;81.15
65203;HTU21D;51788;45.124;38.966;2023-04-24T01:48:11;10.37;81.14
65203;HTU21D;51788;45.124;38.966;2023-04-24T01:50:38;10.40;81.20
65203;HTU21D;51788;45.124;38.966;2023-04-24T01:53:04;10.39;81.65
65203;HTU21D;51788;45.124;38.966;2023-04-24T01:55:30;10.42;81.48
65203;HTU21D;51788;45.124;38.966;2023-04-24T01:57:56;10.39;81.62
65203;HTU21D;51788;45.124;38.966;2023-04-24T02:00:23;10.40;81.68
65203;HTU21D;51788;45.124;38.966;2023-04-24T02:02:51;10.35;81.70
65203;HTU21D;51788;45.124;38.966;2023-04-24T02:05:17;10.36;81.76
65203;HTU21D;51788;45.124;38.966;2023-04-24T02:07:43;10.35;81.85
65203;HTU21D;51788;45.124;38.966;2023-04-24T02:10:10;10.36;81.85
65203;HTU21D;51788;45.124;38.966;2023-04-24T02:12:36;10.33;81.93
65203;HTU21D;51788;45.124;38.966;2023-04-24T02:15:02;10.31;81.97
65203;HTU21D;51788;45.124;38.966;2023-04-24T02:17:28;10.30;82.02
65203;HTU21D;51788;45.124;38.966;2023-04-24T02:19:56;10.28;82.10
65203;HTU21D;51788;45.124;38.966;2023-04-24T02:22:22;10.29;82.17
65203;HTU21D;51788;45.124;38.966;2023-04-24T02:24:48;10.34;82.17
65203;HTU21D;51788;45.124;38.966;2023-04-24T02:27:15;10.37;82.07
65203;HTU21D;51788;45.124;38.966;2023-04-24T02:29:41;10.39;82.04
65203;HTU21D;51788;45.124;38.966;2023-04-24T02:32:07;10.41;82.04
65203;HTU21D;51788;45.124;38.966;2023-04-24T02:34:37;10.44;81.95
65203;HTU21D;51788;45.124;38.966;2023-04-24T02:37:02;10.42;82.01
65203;HTU21D;51788;45.124;38.966;2023-04-24T02:39:28;10.42;82.03
65203;HTU21D;51788;45.124;38.966;2023-04-24T02:41:54;10.43;82.05
65203;HTU21D;51788;45.124;38.966;2023-04-24T02:44:20;10.45;82.06
65203;HTU21D;51788;45.124;38.966;2023-04-24T02:46:48;10.44;82.07
65203;HTU21D;51788;45.124;38.966;2023-04-24T02:49:15;10.46;82.05
65203;HTU21D;51788;45.124;38.966;2023-04-24T02:51:41;10.46;82.02
65203;HTU21D;51788;45.124;38.966;2023-04-24T02:54:08;10.48;82.13
65203;HTU21D;51788;45.124;38.966;2023-04-24T02:56:35;10.52;82.01
65203;HTU21D;51788;45.124;38.966;2023-04-24T02:59:02;10.52;82.01
65203;HTU21D;51788;45.124;38.966;2023-04-24T03:01:29;10.54;82.09
65203;HTU21D;51788;45.124;38.966;2023-04-24T03:03:55;10.52;82.07
65203;HTU21D;51788;45.124;38.966;2023-04-24T03:06:21;10.50;82.10
65203;HTU21D;51788;45.124;38.966;2023-04-24T03:08:47;10.51;82.14
65203;HTU21D;51788;45.124;38.966;2023-04-24T03:11:12;10.50;82.26
65203;HTU21D;51788;45.124;38.966;2023-04-24T03:13:41;10.48;82.39
65203;HTU21D;51788;45.124;38.966;2023-04-24T03:16:07;10.50;82.39
65203;HTU21D;51788;45.124;38.966;2023-04-24T03:18:33;10.50;82.49
65203;HTU21D;51788;45.124;38.966;2023-04-24T03:20:59;10.51;82.52
65203;HTU21D;51788;45.124;38.966;2023-04-24T03:23:27;10.52;82.53
65203;HTU21D;51788;45.124;38.966;2023-04-24T03:25:53;10.55;82.51
65203;HTU21D;51788;45.124;38.966;2023-04-24T03:28:20;10.62;82.46
65203;HTU21D;51788;45.124;38.966;2023-04-24T03:30:56;10.66;82.43
65203;HTU21D;51788;45.124;38.966;2023-04-24T03:33:23;10.71;82.37
65203;HTU21D;51788;45.124;38.966;2023-04-24T03:36:00;10.74;82.39
65203;HTU21D;51788;45.124;38.966;2023-04-24T03:38:33;10.82;82.32
65203;HTU21D;51788;45.124;38.966;2023-04-24T03:41:08;10.85;82.24
65203;HTU21D;51788;45.124;38.966;2023-04-24T03:44:00;10.86;82.27
65203;HTU21D;51788;45.124;38.966;2023-04-24T03:46:26;10.89;82.31
65203;HTU21D;51788;45.124;38.966;2023-04-24T03:48:56;10.93;82.37
65203;HTU21D;51788;45.124;38.966;2023-04-24T03:51:26;10.95;82.62
65203;HTU21D;51788;45.124;38.966;2023-04-24T03:53:57;11.01;82.55
65203;HTU21D;51788;45.124;38.966;2023-04-24T03:56:26;11.04;82.54
65203;HTU21D;51788;45.124;38.966;2023-04-24T03:58:52;11.11;82.50
65203;HTU21D;51788;45.124;38.966;2023-04-24T04:01:19;11.20;82.39
65203;HTU21D;51788;45.124;38.966;2023-04-24T04:03:52;11.22;82.37
65203;HTU21D;51788;45.124;38.966;2023-04-24T04:06:22;11.27;82.34
65203;HTU21D;51788;45.124;38.966;2023-04-24T04:08:50;11.37;82.28
65203;HTU21D;51788;45.124;38.966;2023-04-24T04:11:16;11.46;82.08
65203;HTU21D;51788;45.124;38.966;2023-04-24T04:13:44;11.49;82.07
65203;HTU21D;51788;45.124;38.966;2023-04-24T04:16:11;11.53;82.20
65203;HTU21D;51788;45.124;38.966;2023-04-24T04:18:37;11.59;82.24
65203;HTU21D;51788;45.124;38.966;2023-04-24T04:21:05;11.63;82.26
65203;HTU21D;51788;45.124;38.966;2023-04-24T04:23:31;11.69;82.23
65203;HTU21D;51788;45.124;38.966;2023-04-24T04:26:11;11.68;82.27
65203;HTU21D;51788;45.124;38.966;2023-04-24T04:29:04;11.62;82.53
65203;HTU21D;51788;45.124;38.966;2023-04-24T04:31:35;11.66;82.54
65203;HTU21D;51788;45.124;38.966;2023-04-24T04:34:06;11.70;82.55
65203;HTU21D;51788;45.124;38.966;2023-04-24T04:36:34;11.72;82.49
65203;HTU21D;51788;45.124;38.966;2023-04-24T04:39:14;11.71;82.58
65203;HTU21D;51788;45.124;38.966;2023-04-24T04:41:51;11.72;82.68
65203;HTU21D;51788;45.124;38.966;2023-04-24T04:44:20;11.74;82.81
65203;HTU21D;51788;45.124;38.966;2023-04-24T04:46:46;11.78;82.90
65203;HTU21D;51788;45.124;38.966;2023-04-24T04:49:21;11.85;83.20
65203;HTU21D;51788;45.124;38.966;2023-04-24T04:51:47;11.88;83.13
65203;HTU21D;51788;45.124;38.966;2023-04-24T04:54:14;11.91;83.02
65203;HTU21D;51788;45.124;38.966;2023-04-24T04:56:41;11.94;82.98
65203;HTU21D;51788;45.124;38.966;2023-04-24T04:59:07;12.02;82.94
65203;HTU21D;51788;45.124;38.966;2023-04-24T05:01:36;12.10;82.85
65203;HTU21D;51788;45.124;38.966;2023-04-24T05:04:03;12.18;82.76
65203;HTU21D;51788;45.124;38.966;2023-04-24T05:06:29;12.26;82.65
65203;HTU21D;51788;45.124;38.966;2023-04-24T05:08:56;12.34;82.58
65203;HTU21D;51788;45.124;38.966;2023-04-24T05:11:35;12.48;82.50
65203;HTU21D;51788;45.124;38.966;2023-04-24T05:14:02;12.67;82.16
65203;HTU21D;51788;45.124;38.966;2023-04-24T05:16:39;12.88;81.76
65203;HTU21D;51788;45.124;38.966;2023-04-24T05:19:08;13.01;81.62
65203;HTU21D;51788;45.124;38.966;2023-04-24T05:21:38;13.10;81.57
65203;HTU21D;51788;45.124;38.966;2023-04-24T05:24:05;13.15;81.70
65203;HTU21D;51788;45.124;38.966;2023-04-24T05:26:50;13.19;81.73
65203;HTU21D;51788;45.124;38.966;2023-04-24T05:29:20;13.21;81.81
65203;HTU21D;51788;45.124;38.966;2023-04-24T05:31:46;13.26;81.83
65203;HTU21D;51788;45.124;38.966;2023-04-24T05:34:12;13.36;81.68
65203;HTU21D;51788;45.124;38.966;2023-04-24T05:36:43;13.39;81.77
65203;HTU21D;51788;45.124;38.966;2023-04-24T05:39:08;13.39;81.75
65203;HTU21D;51788;45.124;38.966;2023-04-24T05:41:35;13.39;81.86
65203;HTU21D;51788;45.124;38.966;2023-04-24T05:44:01;13.36;81.91
65203;HTU21D;51788;45.124;38.966;2023-04-24T05:46:26;13.38;81.99
65203;HTU21D;51788;45.124;38.966;2023-04-24T05:48:54;13.38;82.01
65203;HTU21D;51788;45.124;38.966;2023-04-24T05:51:20;13.39;82.01
65203;HTU21D;51788;45.124;38.966;2023-04-24T05:53:47;13.40;82.01
65203;HTU21D;51788;45.124;38.966;2023-04-24T05:56:15;13.41;82.04
65203;HTU21D;51788;45.124;38.966;2023-04-24T05:58:41;13.41;82.12
65203;HTU21D;51788;45.124;38.966;2023-04-24T06:01:08;13.43;82.13
65203;HTU21D;51788;45.124;38.966;2023-04-24T06:03:36;13.45;82.09
65203;HTU21D;51788;45.124;38.966;2023-04-24T06:06:03;13.46;82.05
65203;HTU21D;51788;45.124;38.966;2023-04-24T06:08:29;13.51;81.94
65203;HTU21D;51788;45.124;38.966;2023-04-24T06:10:55;13.60;81.78
65203;HTU21D;51788;45.124;38.966;2023-04-24T06:13:22;13.65;81.65
65203;HTU21D;51788;45.124;38.966;2023-04-24T06:16:10;13.73;81.52
65203;HTU21D;51788;45.124;38.966;2023-04-24T06:18:39;13.80;81.44
65203;HTU21D;51788;45.124;38.966;2023-04-24T06:21:05;13.89;81.35
65203;HTU21D;51788;45.124;38.966;2023-04-24T06:23:32;13.95;81.26
65203;HTU21D;51788;45.124;38.966;2023-04-24T06:25:59;13.99;81.21
65203;HTU21D;51788;45.124;38.966;2023-04-24T06:28:26;14.03;81.17
65203;HTU21D;51788;45.124;38.966;2023-04-24T06:30:52;14.07;81.11
65203;HTU21D;51788;45.124;38.966;2023-04-24T06:33:18;14.12;81.06
65203;HTU21D;51788;45.124;38.966;2023-04-24T06:35:44;14.17;80.99
65203;HTU21D;51788;45.124;38.966;2023-04-24T06:38:10;14.23;80.90
65203;HTU21D;51788;45.124;38.966;2023-04-24T06:40:36;14.29;80.78
65203;HTU21D;51788;45.124;38.966;2023-04-24T06:43:02;14.38;80.59
65203;HTU21D;51788;45.124;38.966;2023-04-24T06:45:29;14.49;80.35
65203;HTU21D;51788;45.124;38.966;2023-04-24T06:47:55;14.59;80.05
65203;HTU21D;51788;45.124;38.966;2023-04-24T06:50:22;14.73;79.71
65203;HTU21D;51788;45.124;38.966;2023-04-24T06:52:48;14.80;79.41
65203;HTU21D;51788;45.124;38.966;2023-04-24T06:55:14;14.84;79.15
65203;HTU21D;51788;45.124;38.966;2023-04-24T06:57:42;14.92;78.98
65203;HTU21D;51788;45.124;38.966;2023-04-24T07:00:10;15.01;78.66
65203;HTU21D;51788;45.124;38.966;2023-04-24T07:02:36;15.08;78.30
65203;HTU21D;51788;45.124;38.966;2023-04-24T07:05:04;15.06;78.36
65203;HTU21D;51788;45.124;38.966;2023-04-24T07:07:30;15.07;78.23
65203;HTU21D;51788;45.124;38.966;2023-04-24T07:09:56;15.03;78.10
65203;HTU21D;51788;45.124;38.966;2023-04-24T07:12:23;15.03;78.04
65203;HTU21D;51788;45.124;38.966;2023-04-24T07:14:50;15.03;77.56
65203;HTU21D;51788;45.124;38.966;2023-04-24T07:17:16;14.94;77.84
65203;HTU21D;51788;45.124;38.966;2023-04-24T07:19:42;14.99;77.59
65203;HTU21D;51788;45.124;38.966;2023-04-24T07:22:08;15.11;77.17
65203;HTU21D;51788;45.124;38.966;2023-04-24T07:24:34;15.23;77.02
65203;HTU21D;51788;45.124;38.966;2023-04-24T07:27:00;15.41;76.73
65203;HTU21D;51788;45.124;38.966;2023-04-24T07:29:29;15.60;76.19
65203;HTU21D;51788;45.124;38.966;2023-04-24T07:31:55;15.77;75.63
65203;HTU21D;51788;45.124;38.966;2023-04-24T07:34:22;15.85;75.26
65203;HTU21D;51788;45.124;38.966;2023-04-24T07:36:47;15.92;74.89
65203;HTU21D;51788;45.124;38.966;2023-04-24T07:39:13;15.95;74.93
65203;HTU21D;51788;45.124;38.966;2023-04-24T07:41:39;15.85;74.88
65203;HTU21D;51788;45.124;38.966;2023-04-24T07:44:06;15.78;75.34
65203;HTU21D;51788;45.124;38.966;2023-04-24T07:46:32;15.97;74.68
65203;HTU21D;51788;45.124;38.966;2023-04-24T07:48:58;16.17;74.50
65203;HTU21D;51788;45.124;38.966;2023-04-24T07:51:25;16.34;73.67
65203;HTU21D;51788;45.124;38.966;2023-04-24T07:53:53;16.43;73.66
65203;HTU21D;51788;45.124;38.966;2023-04-24T07:56:21;16.49;73.03
65203;HTU21D;51788;45.124;38.966;2023-04-24T07:58:46;16.32;73.06
65203;HTU21D;51788;45.124;38.966;2023-04-24T08:01:12;16.18;73.73
65203;HTU21D;51788;45.124;38.966;2023-04-24T08:03:38;16.17;73.86
65203;HTU21D;51788;45.124;38.966;2023-04-24T08:06:04;16.17;73.49
65203;HTU21D;51788;45.124;38.966;2023-04-24T08:08:30;16.14;73.48
65203;HTU21D;51788;45.124;38.966;2023-04-24T08:10:56;16.19;73.17
65203;HTU21D;51788;45.124;38.966;2023-04-24T08:13:22;16.12;73.37
65203;HTU21D;51788;45.124;38.966;2023-04-24T08:15:48;16.12;73.32
65203;HTU21D;51788;45.124;38.966;2023-04-24T08:18:14;16.15;73.54
65203;HTU21D;51788;45.124;38.966;2023-04-24T08:20:41;16.20;73.27
65203;HTU21D;51788;45.124;38.966;2023-04-24T08:23:07;16.13;73.42
65203;HTU21D;51788;45.124;38.966;2023-04-24T08:25:33;16.16;73.54
65203;HTU21D;51788;45.124;38.966;2023-04-24T08:28:02;16.15;73.49
65203;HTU21D;51788;45.124;38.966;2023-04-24T08:30:29;16.11;73.44
65203;HTU21D;51788;45.124;38.966;2023-04-24T08:32:56;16.05;73.70
65203;HTU21D;51788;45.124;38.966;2023-04-24T08:35:22;16.06;73.81
65203;HTU21D;51788;45.124;38.966;2023-04-24T08:37:48;16.08;73.90
65203;HTU21D;51788;45.124;38.966;2023-04-24T08:40:15;16.04;74.05
65203;HTU21D;51788;45.124;38.966;2023-04-24T08:42:42;16.01;74.23
65203;HTU21D;51788;45.124;38.966;2023-04-24T08:45:10;16.02;74.35
65203;HTU21D;51788;45.124;38.966;2023-04-24T08:47:38;15.96;74.51
65203;HTU21D;51788;45.124;38.966;2023-04-24T08:50:05;15.87;74.75
65203;HTU21D;51788;45.124;38.966;2023-04-24T08:52:33;15.78;75.13
65203;HTU21D;51788;45.124;38.966;2023-04-24T08:55:00;15.73;75.41
65203;HTU21D;51788;45.124;38.966;2023-04-24T08:57:27;15.62;75.67
65203;HTU21D;51788;45.124;38.966;2023-04-24T08:59:54;15.55;75.94
65203;HTU21D;51788;45.124;38.966;2023-04-24T09:02:23;15.52;76.14
65203;HTU21D;51788;45.124;38.966;2023-04-24T09:04:49;15.52;76.21
65203;HTU21D;51788;45.124;38.966;2023-04-24T09:07:16;15.46;76.50
65203;HTU21D;51788;45.124;38.966;2023-04-24T09:09:44;15.42;77.22
65203;HTU21D;51788;45.124;38.966;2023-04-24T09:12:10;15.27;77.62
65203;HTU21D;51788;45.124;38.966;2023-04-24T09:14:36;15.18;78.21
65203;HTU21D;51788;45.124;38.966;2023-04-24T09:17:06;15.07;78.66
65203;HTU21D;51788;45.124;38.966;2023-04-24T09:19:32;15.08;78.84
65203;HTU21D;51788;45.124;38.966;2023-04-24T09:21:58;15.10;78.83
65203;HTU21D;51788;45.124;38.966;2023-04-24T09:24:24;15.13;78.69
65203;HTU21D;51788;45.124;38.966;2023-04-24T09:26:59;15.14;79.01
65203;HTU21D;51788;45.124;38.966;2023-04-24T09:29:27;15.10;79.30
65203;HTU21D;51788;45.124;38.966;2023-04-24T09:31:54;15.02;79.82
65203;HTU21D;51788;45.124;38.966;2023-04-24T09:34:25;14.89;80.19
65203;HTU21D;51788;45.124;38.966;2023-04-24T09:36:52;14.78;80.72
65203;HTU21D;51788;45.124;38.966;2023-04-24T09:39:19;14.77;80.88
65203;HTU21D;51788;45.124;38.966;2023-04-24T09:41:53;14.66;81.27
65203;HTU21D;51788;45.124;38.966;2023-04-24T09:44:23;14.55;81.84
65203;HTU21D;51788;45.124;38.966;2023-04-24T09:46:54;14.48;81.87
65203;HTU21D;51788;45.124;38.966;2023-04-24T09:49:30;14.49;82.18
65203;HTU21D;51788;45.124;38.966;2023-04-24T09:52:11;14.44;82.53
65203;HTU21D;51788;45.124;38.966;2023-04-24T09:54:39;14.38;82.68
65203;HTU21D;51788;45.124;38.966;2023-04-24T09:57:09;14.35;82.98
65203;HTU21D;51788;45.124;38.966;2023-04-24T09:59:35;14.38;82.93
65203;HTU21D;51788;45.124;38.966;2023-04-24T10:02:00;14.51;82.79
65203;HTU21D;51788;45.124;38.966;2023-04-24T10:04:28;14.59;82.75
65203;HTU21D;51788;45.124;38.966;2023-04-24T10:06:55;14.64;82.81
65203;HTU21D;51788;45.124;38.966;2023-04-24T10:09:26;14.63;83.09
65203;HTU21D;51788;45.124;38.966;2023-04-24T10:11:53;14.58;83.20
65203;HTU21D;51788;45.124;38.966;2023-04-24T10:14:24;14.52;83.36
65203;HTU21D;51788;45.124;38.966;2023-04-24T10:16:53;14.49;83.38
65203;HTU21D;51788;45.124;38.966;2023-04-24T10:19:19;14.50;83.52
65203;HTU21D;51788;45.124;38.966;2023-04-24T10:21:45;14.52;83.61
65203;HTU21D;51788;45.124;38.966;2023-04-24T10:24:18;14.52;83.74
65203;HTU21D;51788;45.124;38.966;2023-04-24T10:26:47;14.55;83.69
65203;HTU21D;51788;45.124;38.966;2023-04-24T10:29:17;14.62;83.63
65203;HTU21D;51788;45.124;38.966;2023-04-24T10:31:43;14.63;83.59
65203;HTU21D;51788;45.124;38.966;2023-04-24T10:34:14;14.62;83.63
65203;HTU21D;51788;45.124;38.966;2023-04-24T10:37:07;14.60;83.78
65203;HTU21D;51788;45.124;38.966;2023-04-24T10:39:33;14.60;83.39
65203;HTU21D;51788;45.124;38.966;2023-04-24T10:42:00;14.63;83.30
65203;HTU21D;51788;45.124;38.966;2023-04-24T10:44:36;14.65;83.36
65203;HTU21D;51788;45.124;38.966;2023-04-24T10:47:02;14.69;83.19
65203;HTU21D;51788;45.124;38.966;2023-04-24T10:49:29;14.77;83.30
65203;HTU21D;51788;45.124;38.966;2023-04-24T10:52:00;14.79;83.33
65203;HTU21D;51788;45.124;38.966;2023-04-24T10:54:29;14.72;83.51
65203;HTU21D;51788;45.124;38.966;2023-04-24T10:59:47;14.59;83.89
65203;HTU21D;51788;45.124;38.966;2023-04-24T11:02:17;14.59;83.94
65203;HTU21D;51788;45.124;38.966;2023-04-24T11:04:44;14.65;84.12
65203;HTU21D;51788;45.124;38.966;2023-04-24T11:07:11;14.68;84.00
65203;HTU21D;51788;45.124;38.966;2023-04-24T11:09:37;14.75;83.94
65203;HTU21D;51788;45.124;38.966;2023-04-24T11:12:08;14.81;83.76
65203;HTU21D;51788;45.124;38.966;2023-04-24T11:17:38;14.87;83.86
65203;HTU21D;51788;45.124;38.966;2023-04-24T11:20:07;14.89;83.69
65203;HTU21D;51788;45.124;38.966;2023-04-24T11:22:38;14.87;83.80
65203;HTU21D;51788;45.124;38.966;2023-04-24T11:25:06;14.86;83.81
65203;HTU21D;51788;45.124;38.966;2023-04-24T11:27:39;14.84;83.83
65203;HTU21D;51788;45.124;38.966;2023-04-24T11:30:06;14.79;83.92
65203;HTU21D;51788;45.124;38.966;2023-04-24T11:34:59;14.66;84.13
65203;HTU21D;51788;45.124;38.966;2023-04-24T11:37:35;14.62;84.50
65203;HTU21D;51788;45.124;38.966;2023-04-24T11:40:03;14.62;84.58
65203;HTU21D;51788;45.124;38.966;2023-04-24T11:42:34;14.57;84.74
65203;HTU21D;51788;45.124;38.966;2023-04-24T11:45:00;14.54;84.87
65203;HTU21D;51788;45.124;38.966;2023-04-24T11:47:31;14.48;85.11
65203;HTU21D;51788;45.124;38.966;2023-04-24T11:50:00;14.44;85.26
65203;HTU21D;51788;45.124;38.966;2023-04-24T11:52:27;14.41;85.38
65203;HTU21D;51788;45.124;38.966;2023-04-24T11:54:53;14.40;85.55
65203;HTU21D;51788;45.124;38.966;2023-04-24T11:57:20;14.38;85.69
65203;HTU21D;51788;45.124;38.966;2023-04-24T11:59:46;14.30;85.79
65203;HTU21D;51788;45.124;38.966;2023-04-24T12:02:22;14.28;85.87
65203;HTU21D;51788;45.124;38.966;2023-04-24T12:04:49;14.26;85.84
65203;HTU21D;51788;45.124;38.966;2023-04-24T12:07:15;14.25;85.87
65203;HTU21D;51788;45.124;38.966;2023-04-24T12:12:12;14.24;86.02
65203;HTU21D;51788;45.124;38.966;2023-04-24T12:14:50;14.20;86.15
65203;HTU21D;51788;45.124;38.966;2023-04-24T12:17:16;14.19;86.09
65203;HTU21D;51788;45.124;38.966;2023-04-24T12:19:47;14.21;85.97
65203;HTU21D;51788;45.124;38.966;2023-04-24T12:22:13;14.26;85.91
65203;HTU21D;51788;45.124;38.966;2023-04-24T12:25:00;14.25;86.04
65203;HTU21D;51788;45.124;38.966;2023-04-24T12:27:31;14.24;85.84
65203;HTU21D;51788;45.124;38.966;2023-04-24T12:29:59;14.25;85.83
65203;HTU21D;51788;45.124;38.966;2023-04-24T12:32:26;14.26;85.84
65203;HTU21D;51788;45.124;38.966;2023-04-24T12:34:53;14.27;85.84
65203;HTU21D;51788;45.124;38.966;2023-04-24T12:37:19;14.26;85.84
65203;HTU21D;51788;45.124;38.966;2023-04-24T12:40:02;14.28;85.93
65203;HTU21D;51788;45.124;38.966;2023-04-24T12:42:30;14.28;85.84
65203;HTU21D;51788;45.124;38.966;2023-04-24T12:44:58;14.29;85.84
65203;HTU21D;51788;45.124;38.966;2023-04-24T12:47:27;14.30;85.80
65203;HTU21D;51788;45.124;38.966;2023-04-24T12:49:54;14.32;85.79
65203;HTU21D;51788;45.124;38.966;2023-04-24T12:52:22;14.36;85.73
65203;HTU21D;51788;45.124;38.966;2023-04-24T12:54:50;14.38;85.72
65203;HTU21D;51788;45.124;38.966;2023-04-24T12:57:17;14.39;85.68
65203;HTU21D;51788;45.124;38.966;2023-04-24T12:59:43;14.39;85.69
65203;HTU21D;51788;45.124;38.966;2023-04-24T13:02:10;14.39;85.67
65203;HTU21D;51788;45.124;38.966;2023-04-24T13:04:36;14.40;85.68
65203;HTU21D;51788;45.124;38.966;2023-04-24T13:07:02;14.40;85.76
65203;HTU21D;51788;45.124;38.966;2023-04-24T13:09:28;14.38;85.92
65203;HTU21D;51788;45.124;38.966;2023-04-24T13:11:55;14.38;86.06
65203;HTU21D;51788;45.124;38.966;2023-04-24T13:14:23;14.38;86.06
65203;HTU21D;51788;45.124;38.966;2023-04-24T13:16:49;14.34;86.13
65203;HTU21D;51788;45.124;38.966;2023-04-24T13:19:15;14.34;86.12
65203;HTU21D;51788;45.124;38.966;2023-04-24T13:21:41;14.36;86.05
65203;HTU21D;51788;45.124;38.966;2023-04-24T13:24:07;14.41;85.98
65203;HTU21D;51788;45.124;38.966;2023-04-24T13:26:33;14.47;85.89
65203;HTU21D;51788;45.124;38.966;2023-04-24T13:28:59;14.51;85.80
65203;HTU21D;51788;45.124;38.966;2023-04-24T13:31:25;14.58;85.74
65203;HTU21D;51788;45.124;38.966;2023-04-24T13:33:51;14.63;85.66
65203;HTU21D;51788;45.124;38.966;2023-04-24T13:36:17;14.60;85.71
65203;HTU21D;51788;45.124;38.966;2023-04-24T13:38:44;14.63;85.70
65203;HTU21D;51788;45.124;38.966;2023-04-24T13:41:10;14.66;85.65
65203;HTU21D;51788;45.124;38.966;2023-04-24T13:43:36;14.68;85.64
65203;HTU21D;51788;45.124;38.966;2023-04-24T13:46:02;14.71;85.54
65203;HTU21D;51788;45.124;38.966;2023-04-24T13:48:29;14.73;85.48
65203;HTU21D;51788;45.124;38.966;2023-04-24T13:50:55;14.73;85.45
65203;HTU21D;51788;45.124;38.966;2023-04-24T13:53:21;14.75;85.41
65203;HTU21D;51788;45.124;38.966;2023-04-24T13:55:47;14.77;85.32
65203;HTU21D;51788;45.124;38.966;2023-04-24T13:58:13;14.77;85.34
65203;HTU21D;51788;45.124;38.966;2023-04-24T14:00:40;14.81;85.26
65203;HTU21D;51788;45.124;38.966;2023-04-24T14:03:06;14.82;85.18
65203;HTU21D;51788;45.124;38.966;2023-04-24T14:05:32;14.87;85.06
65203;HTU21D;51788;45.124;38.966;2023-04-24T14:07:58;14.94;84.95
65203;HTU21D;51788;45.124;38.966;2023-04-24T14:10:24;15.01;84.78
65203;HTU21D;51788;45.124;38.966;2023-04-24T14:12:51;15.03;84.62
65203;HTU21D;51788;45.124;38.966;2023-04-24T14:15:17;15.01;84.55
65203;HTU21D;51788;45.124;38.966;2023-04-24T14:17:43;15.10;84.49
65203;HTU21D;51788;45.124;38.966;2023-04-24T14:20:09;15.23;84.22
65203;HTU21D;51788;45.124;38.966;2023-04-24T14:22:36;15.36;84.00
65203;HTU21D;51788;45.124;38.966;2023-04-24T14:25:02;15.39;83.76
65203;HTU21D;51788;45.124;38.966;2023-04-24T14:27:28;15.34;83.88
65203;HTU21D;51788;45.124;38.966;2023-04-24T14:29:55;15.32;83.88
65203;HTU21D;51788;45.124;38.966;2023-04-24T14:32:21;15.34;83.81
65203;HTU21D;51788;45.124;38.966;2023-04-24T14:34:47;15.36;83.68
65203;HTU21D;51788;45.124;38.966;2023-04-24T14:37:13;15.30;83.63
65203;HTU21D;51788;45.124;38.966;2023-04-24T14:39:39;15.26;83.59
65203;HTU21D;51788;45.124;38.966;2023-04-24T14:42:05;15.26;83.58
65203;HTU21D;51788;45.124;38.966;2023-04-24T14:44:31;15.22;83.49
65203;HTU21D;51788;45.124;38.966;2023-04-24T14:46:58;15.12;83.55
65203;HTU21D;51788;45.124;38.966;2023-04-24T14:49:24;15.10;83.53
65203;HTU21D;51788;45.124;38.966;2023-04-24T14:51:51;15.04;83.52
65203;HTU21D;51788;45.124;38.966;2023-04-24T14:54:17;15.02;83.59
65203;HTU21D;51788;45.124;38.966;2023-04-24T14:56:43;14.95;83.65
65203;HTU21D;51788;45.124;38.966;2023-04-24T14:59:10;14.89;83.76
65203;HTU21D;51788;45.124;38.966;2023-04-24T15:01:36;14.85;83.81
65203;HTU21D;51788;45.124;38.966;2023-04-24T15:04:02;14.79;83.90
65203;HTU21D;51788;45.124;38.966;2023-04-24T15:06:30;14.74;84.07
65203;HTU21D;51788;45.124;38.966;2023-04-24T15:08:57;14.78;84.07
65203;HTU21D;51788;45.124;38.966;2023-04-24T15:11:23;14.78;83.98
65203;HTU21D;51788;45.124;38.966;2023-04-24T15:13:49;14.78;83.94
65203;HTU21D;51788;45.124;38.966;2023-04-24T15:16:15;14.79;83.93